Time;durP1;ratioP1;P1;durP2;ratioP2;P2;SDS_P1;SDS_P2;PMS_P1;PMS_P2;Temp;Humidity;BMP_temperature;BMP_pressure;BME280_temperature;BME280_humidity;BME280_pressure;Samples;Min_cycle;Max_cycle;Signal;HPM_P1;HPM_P2
2019/10/05 00:00:46;;;;;;;7.7;2.5;;;;;;;10.95;95.14648;94551.22;;;;
2019/10/05 00:01:53;;;;;;;7.7;2.5;;;;;;;10.95;95.14648;94551.22;;;;
2019/10/05 00:02:54;;;;;;;7.7;2.5;;;;;;;10.95;95.14648;94551.22;;;;
2019/10/05 00:03:55;;;;;;;7.7;2.5;;;;;;;10.95;95.14648;94551.22;;;;
2019/10/05 00:04:57;;;;;;;7.7;2.5;;;;;;;10.95;95.14648;94551.22;;;;
2019/10/05 00:05:58;;;;;;;7.7;2.5;;;;;;;10.95;95.14648;94551.22;;;;
2019/10/05 00:06:59;;;;;;;7.7;2.5;;;;;;;10.95;95.14648;94551.22;;;;
2019/10/05 00:08:00;;;;;;;7.7;2.5;;;;;;;10.95;95.14648;94551.22;;;;
2019/10/05 00:09:02;;;;;;;7.7;2.5;;;;;;;10.95;95.14648;94551.22;;;;
2019/10/05 00:10:14;;;;;;;6.749999;2.5;;;;;;;10.96;95.21289;94552.42;;;;
2019/10/05 00:11:54;;;;;;;6.749999;2.5;;;;;;;10.96;95.21289;94552.42;;;;
2019/10/05 00:12:55;;;;;;;6.749999;2.5;;;;;;;10.96;95.21289;94552.42;;;;
2019/10/05 00:13:56;;;;;;;6.749999;2.5;;;;;;;10.96;95.21289;94552.42;;;;
2019/10/05 00:14:57;;;;;;;6.749999;2.5;;;;;;;10.96;95.21289;94552.42;;;;
2019/10/05 00:16:03;;;;;;;6.749999;2.5;;;;;;;10.96;95.21289;94552.42;;;;
2019/10/05 00:17:17;;;;;;;6.749999;2.5;;;;;;;10.96;95.21289;94552.42;;;;
2019/10/05 00:18:53;;;;;;;6.749999;2.5;;;;;;;10.96;95.21289;94552.42;;;;
2019/10/05 00:20:14;;;;;;;9.2;2.4;;;;;;;10.9;95.32617;94548.49;;;;
2019/10/05 00:22:03;;;;;;;9.2;2.4;;;;;;;10.9;95.32617;94548.49;;;;
2019/10/05 00:23:04;;;;;;;9.2;2.4;;;;;;;10.9;95.32617;94548.49;;;;
2019/10/05 00:24:05;;;;;;;9.2;2.4;;;;;;;10.9;95.32617;94548.49;;;;
2019/10/05 00:25:06;;;;;;;9.2;2.4;;;;;;;10.9;95.32617;94548.49;;;;
2019/10/05 00:26:09;;;;;;;9.2;2.4;;;;;;;10.9;95.32617;94548.49;;;;
2019/10/05 00:27:10;;;;;;;9.2;2.4;;;;;;;10.9;95.32617;94548.49;;;;
2019/10/05 00:28:11;;;;;;;9.2;2.4;;;;;;;10.9;95.32617;94548.49;;;;
2019/10/05 00:29:12;;;;;;;9.2;2.4;;;;;;;10.9;95.32617;94548.49;;;;
2019/10/05 00:30:14;;;;;;;9.2;2.4;;;;;;;10.9;95.32617;94548.49;;;;
2019/10/05 00:31:16;;;;;;;6.100001;2.4;;;;;;;10.84;95.56055;94537.75;;;;
2019/10/05 00:32:17;;;;;;;6.100001;2.4;;;;;;;10.84;95.56055;94537.75;;;;
2019/10/05 00:33:18;;;;;;;6.100001;2.4;;;;;;;10.84;95.56055;94537.75;;;;
2019/10/05 00:34:19;;;;;;;6.100001;2.4;;;;;;;10.84;95.56055;94537.75;;;;
2019/10/05 00:35:20;;;;;;;6.100001;2.4;;;;;;;10.84;95.56055;94537.75;;;;
2019/10/05 00:36:22;;;;;;;6.100001;2.4;;;;;;;10.84;95.56055;94537.75;;;;
2019/10/05 00:37:23;;;;;;;6.100001;2.4;;;;;;;10.84;95.56055;94537.75;;;;
2019/10/05 00:38:24;;;;;;;6.100001;2.4;;;;;;;10.84;95.56055;94537.75;;;;
2019/10/05 00:39:26;;;;;;;6.100001;2.4;;;;;;;10.84;95.56055;94537.75;;;;
2019/10/05 00:40:27;;;;;;;6.100001;2.4;;;;;;;10.84;95.56055;94537.75;;;;
2019/10/05 00:41:28;;;;;;;7.099999;2.15;;;;;;;10.6;96.33691;94535.6;;;;
2019/10/05 00:42:29;;;;;;;7.099999;2.15;;;;;;;10.6;96.33691;94535.6;;;;
2019/10/05 00:43:30;;;;;;;7.099999;2.15;;;;;;;10.6;96.33691;94535.6;;;;
2019/10/05 00:44:31;;;;;;;7.099999;2.15;;;;;;;10.6;96.33691;94535.6;;;;
2019/10/05 00:45:33;;;;;;;7.099999;2.15;;;;;;;10.6;96.33691;94535.6;;;;
2019/10/05 00:46:34;;;;;;;7.099999;2.15;;;;;;;10.6;96.33691;94535.6;;;;
2019/10/05 00:47:35;;;;;;;7.099999;2.15;;;;;;;10.6;96.33691;94535.6;;;;
2019/10/05 00:48:36;;;;;;;7.099999;2.15;;;;;;;10.6;96.33691;94535.6;;;;
2019/10/05 00:49:37;;;;;;;7.099999;2.15;;;;;;;10.6;96.33691;94535.6;;;;
2019/10/05 00:50:38;;;;;;;7.099999;2.15;;;;;;;10.6;96.33691;94535.6;;;;
2019/10/05 00:51:39;;;;;;;7.449999;2.25;;;;;;;10.44;97.2998;94521.95;;;;
2019/10/05 00:52:41;;;;;;;7.449999;2.25;;;;;;;10.44;97.2998;94521.95;;;;
2019/10/05 00:53:42;;;;;;;7.449999;2.25;;;;;;;10.44;97.2998;94521.95;;;;
2019/10/05 00:54:43;;;;;;;7.449999;2.25;;;;;;;10.44;97.2998;94521.95;;;;
2019/10/05 00:55:44;;;;;;;7.449999;2.25;;;;;;;10.44;97.2998;94521.95;;;;
2019/10/05 00:56:47;;;;;;;7.449999;2.25;;;;;;;10.44;97.2998;94521.95;;;;
2019/10/05 00:57:48;;;;;;;7.449999;2.25;;;;;;;10.44;97.2998;94521.95;;;;
2019/10/05 00:58:49;;;;;;;7.449999;2.25;;;;;;;10.44;97.2998;94521.95;;;;
2019/10/05 00:59:50;;;;;;;7.449999;2.25;;;;;;;10.44;97.2998;94521.95;;;;
2019/10/05 01:00:52;;;;;;;7.449999;2.25;;;;;;;10.44;97.2998;94521.95;;;;
2019/10/05 01:02:07;;;;;;;7.449999;2.25;;;;;;;10.44;97.2998;94521.95;;;;
2019/10/05 01:03:09;;;;;;;6.099999;2.1;;;;;;;10.28;97.59375;94514.76;;;;
2019/10/05 01:04:10;;;;;;;6.099999;2.1;;;;;;;10.28;97.59375;94514.76;;;;
2019/10/05 01:05:11;;;;;;;6.099999;2.1;;;;;;;10.28;97.59375;94514.76;;;;
2019/10/05 01:06:13;;;;;;;6.099999;2.1;;;;;;;10.28;97.59375;94514.76;;;;
2019/10/05 01:07:14;;;;;;;6.099999;2.1;;;;;;;10.28;97.59375;94514.76;;;;
2019/10/05 01:08:16;;;;;;;6.099999;2.1;;;;;;;10.28;97.59375;94514.76;;;;
2019/10/05 01:09:17;;;;;;;6.099999;2.1;;;;;;;10.28;97.59375;94514.76;;;;
2019/10/05 01:10:18;;;;;;;6.099999;2.1;;;;;;;10.28;97.59375;94514.76;;;;
2019/10/05 01:11:20;;;;;;;6.099999;2.1;;;;;;;10.28;97.59375;94514.76;;;;
2019/10/05 01:12:21;;;;;;;6.099999;2.1;;;;;;;10.28;97.59375;94514.76;;;;
2019/10/05 01:13:23;;;;;;;6.05;2.15;;;;;;;10.22;98.00586;94509.01;;;;
2019/10/05 01:14:24;;;;;;;6.05;2.15;;;;;;;10.22;98.00586;94509.01;;;;
2019/10/05 01:15:25;;;;;;;6.05;2.15;;;;;;;10.22;98.00586;94509.01;;;;
2019/10/05 01:16:26;;;;;;;6.05;2.15;;;;;;;10.22;98.00586;94509.01;;;;
2019/10/05 01:17:27;;;;;;;6.05;2.15;;;;;;;10.22;98.00586;94509.01;;;;
2019/10/05 01:18:29;;;;;;;6.05;2.15;;;;;;;10.22;98.00586;94509.01;;;;
2019/10/05 01:19:30;;;;;;;6.05;2.15;;;;;;;10.22;98.00586;94509.01;;;;
2019/10/05 01:20:31;;;;;;;6.05;2.15;;;;;;;10.22;98.00586;94509.01;;;;
2019/10/05 01:21:32;;;;;;;6.05;2.15;;;;;;;10.22;98.00586;94509.01;;;;
2019/10/05 01:22:33;;;;;;;6.05;2.15;;;;;;;10.22;98.00586;94509.01;;;;
2019/10/05 01:23:34;;;;;;;6.050001;2.1;;;;;;;10.18;97.94434;94518.67;;;;
2019/10/05 01:24:36;;;;;;;6.050001;2.1;;;;;;;10.18;97.94434;94518.67;;;;
2019/10/05 01:25:37;;;;;;;6.050001;2.1;;;;;;;10.18;97.94434;94518.67;;;;
2019/10/05 01:26:38;;;;;;;6.050001;2.1;;;;;;;10.18;97.94434;94518.67;;;;
2019/10/05 01:27:40;;;;;;;6.050001;2.1;;;;;;;10.18;97.94434;94518.67;;;;
2019/10/05 01:28:41;;;;;;;6.050001;2.1;;;;;;;10.18;97.94434;94518.67;;;;
2019/10/05 01:29:42;;;;;;;6.050001;2.1;;;;;;;10.18;97.94434;94518.67;;;;
2019/10/05 01:30:43;;;;;;;6.050001;2.1;;;;;;;10.18;97.94434;94518.67;;;;
2019/10/05 01:31:44;;;;;;;6.050001;2.1;;;;;;;10.18;97.94434;94518.67;;;;
2019/10/05 01:32:45;;;;;;;6.050001;2.1;;;;;;;10.18;97.94434;94518.67;;;;
2019/10/05 01:33:47;;;;;;;6.050001;2.1;;;;;;;10.18;97.94434;94518.67;;;;
2019/10/05 01:34:48;;;;;;;4.95;2.05;;;;;;;10.23;98.125;94516.05;;;;
2019/10/05 01:35:49;;;;;;;4.95;2.05;;;;;;;10.23;98.125;94516.05;;;;
2019/10/05 01:36:51;;;;;;;4.95;2.05;;;;;;;10.23;98.125;94516.05;;;;
2019/10/05 01:37:52;;;;;;;4.95;2.05;;;;;;;10.23;98.125;94516.05;;;;
2019/10/05 01:38:53;;;;;;;4.95;2.05;;;;;;;10.23;98.125;94516.05;;;;
2019/10/05 01:39:54;;;;;;;4.95;2.05;;;;;;;10.23;98.125;94516.05;;;;
2019/10/05 01:40:56;;;;;;;4.95;2.05;;;;;;;10.23;98.125;94516.05;;;;
2019/10/05 01:41:57;;;;;;;4.95;2.05;;;;;;;10.23;98.125;94516.05;;;;
2019/10/05 01:42:58;;;;;;;4.95;2.05;;;;;;;10.23;98.125;94516.05;;;;
2019/10/05 01:43:59;;;;;;;4.95;2.05;;;;;;;10.23;98.125;94516.05;;;;
2019/10/05 01:45:01;;;;;;;4.500001;1.9;;;;;;;10.22;98.41992;94516.69;;;;
2019/10/05 01:46:02;;;;;;;4.500001;1.9;;;;;;;10.22;98.41992;94516.69;;;;
2019/10/05 01:47:04;;;;;;;4.500001;1.9;;;;;;;10.22;98.41992;94516.69;;;;
2019/10/05 01:48:05;;;;;;;4.500001;1.9;;;;;;;10.22;98.41992;94516.69;;;;
2019/10/05 01:49:07;;;;;;;4.500001;1.9;;;;;;;10.22;98.41992;94516.69;;;;
2019/10/05 01:50:08;;;;;;;4.500001;1.9;;;;;;;10.22;98.41992;94516.69;;;;
2019/10/05 01:51:10;;;;;;;4.500001;1.9;;;;;;;10.22;98.41992;94516.69;;;;
2019/10/05 01:52:11;;;;;;;4.500001;1.9;;;;;;;10.22;98.41992;94516.69;;;;
2019/10/05 01:53:12;;;;;;;4.500001;1.9;;;;;;;10.22;98.41992;94516.69;;;;
2019/10/05 01:54:14;;;;;;;4.500001;1.9;;;;;;;10.22;98.41992;94516.69;;;;
2019/10/05 01:55:15;;;;;;;4.500001;1.9;;;;;;;10.22;98.41992;94516.69;;;;
2019/10/05 01:56:16;;;;;;;5.1;1.85;;;;;;;10.29;98.58301;94510.57;;;;
2019/10/05 01:57:18;;;;;;;5.1;1.85;;;;;;;10.29;98.58301;94510.57;;;;
2019/10/05 01:58:19;;;;;;;5.1;1.85;;;;;;;10.29;98.58301;94510.57;;;;
2019/10/05 01:59:20;;;;;;;5.1;1.85;;;;;;;10.29;98.58301;94510.57;;;;
2019/10/05 02:00:22;;;;;;;5.1;1.85;;;;;;;10.29;98.58301;94510.57;;;;
2019/10/05 02:01:45;;;;;;;5.1;1.85;;;;;;;10.29;98.58301;94510.57;;;;
2019/10/05 02:02:46;;;;;;;5.1;1.85;;;;;;;10.29;98.58301;94510.57;;;;
2019/10/05 02:03:47;;;;;;;5.1;1.85;;;;;;;10.29;98.58301;94510.57;;;;
2019/10/05 02:04:48;;;;;;;5.1;1.85;;;;;;;10.29;98.58301;94510.57;;;;
2019/10/05 02:05:50;;;;;;;5.1;1.85;;;;;;;10.29;98.58301;94510.57;;;;
2019/10/05 02:06:51;;;;;;;6.249999;2.05;;;;;;;10.28;98.41113;94501.79;;;;
2019/10/05 02:07:52;;;;;;;6.249999;2.05;;;;;;;10.28;98.41113;94501.79;;;;
2019/10/05 02:08:53;;;;;;;6.249999;2.05;;;;;;;10.28;98.41113;94501.79;;;;
2019/10/05 02:09:54;;;;;;;6.249999;2.05;;;;;;;10.28;98.41113;94501.79;;;;
2019/10/05 02:10:55;;;;;;;6.249999;2.05;;;;;;;10.28;98.41113;94501.79;;;;
2019/10/05 02:11:57;;;;;;;6.249999;2.05;;;;;;;10.28;98.41113;94501.79;;;;
2019/10/05 02:12:59;;;;;;;6.249999;2.05;;;;;;;10.28;98.41113;94501.79;;;;
2019/10/05 02:14:00;;;;;;;6.249999;2.05;;;;;;;10.28;98.41113;94501.79;;;;
2019/10/05 02:15:01;;;;;;;6.249999;2.05;;;;;;;10.28;98.41113;94501.79;;;;
2019/10/05 02:16:03;;;;;;;6.249999;2.05;;;;;;;10.28;98.41113;94501.79;;;;
2019/10/05 02:17:05;;;;;;;6.5;2.15;;;;;;;10.3;98.96973;94508.58;;;;
2019/10/05 02:18:06;;;;;;;6.5;2.15;;;;;;;10.3;98.96973;94508.58;;;;
2019/10/05 02:19:07;;;;;;;6.5;2.15;;;;;;;10.3;98.96973;94508.58;;;;
2019/10/05 02:20:08;;;;;;;6.5;2.15;;;;;;;10.3;98.96973;94508.58;;;;
2019/10/05 02:21:10;;;;;;;6.5;2.15;;;;;;;10.3;98.96973;94508.58;;;;
2019/10/05 02:22:11;;;;;;;6.5;2.15;;;;;;;10.3;98.96973;94508.58;;;;
2019/10/05 02:23:13;;;;;;;6.5;2.15;;;;;;;10.3;98.96973;94508.58;;;;
2019/10/05 02:24:14;;;;;;;6.5;2.15;;;;;;;10.3;98.96973;94508.58;;;;
2019/10/05 02:25:15;;;;;;;6.5;2.15;;;;;;;10.3;98.96973;94508.58;;;;
2019/10/05 02:26:18;;;;;;;6.5;2.15;;;;;;;10.3;98.96973;94508.58;;;;
2019/10/05 02:27:19;;;;;;;6.25;2.25;;;;;;;10.19;99.40039;94503.31;;;;
2019/10/05 02:28:20;;;;;;;6.25;2.25;;;;;;;10.19;99.40039;94503.31;;;;
2019/10/05 02:29:21;;;;;;;6.25;2.25;;;;;;;10.19;99.40039;94503.31;;;;
2019/10/05 02:30:22;;;;;;;6.25;2.25;;;;;;;10.19;99.40039;94503.31;;;;
2019/10/05 02:31:24;;;;;;;6.25;2.25;;;;;;;10.19;99.40039;94503.31;;;;
2019/10/05 02:32:25;;;;;;;6.25;2.25;;;;;;;10.19;99.40039;94503.31;;;;
2019/10/05 02:33:27;;;;;;;6.25;2.25;;;;;;;10.19;99.40039;94503.31;;;;
2019/10/05 02:34:28;;;;;;;6.25;2.25;;;;;;;10.19;99.40039;94503.31;;;;
2019/10/05 02:35:29;;;;;;;6.25;2.25;;;;;;;10.19;99.40039;94503.31;;;;
2019/10/05 02:36:30;;;;;;;6.25;2.25;;;;;;;10.19;99.40039;94503.31;;;;
2019/10/05 02:37:31;;;;;;;6.25;2.25;;;;;;;10.19;99.40039;94503.31;;;;
2019/10/05 02:38:32;;;;;;;7.2;2.3;;;;;;;10.11;100;94486.24;;;;
2019/10/05 02:39:33;;;;;;;7.2;2.3;;;;;;;10.11;100;94486.24;;;;
2019/10/05 02:40:35;;;;;;;7.2;2.3;;;;;;;10.11;100;94486.24;;;;
2019/10/05 02:41:38;;;;;;;7.2;2.3;;;;;;;10.11;100;94486.24;;;;
2019/10/05 02:42:40;;;;;;;7.2;2.3;;;;;;;10.11;100;94486.24;;;;
2019/10/05 02:43:41;;;;;;;7.2;2.3;;;;;;;10.11;100;94486.24;;;;
2019/10/05 02:44:42;;;;;;;7.2;2.3;;;;;;;10.11;100;94486.24;;;;
2019/10/05 02:45:43;;;;;;;7.2;2.3;;;;;;;10.11;100;94486.24;;;;
2019/10/05 02:46:45;;;;;;;7.2;2.3;;;;;;;10.11;100;94486.24;;;;
2019/10/05 02:47:47;;;;;;;7.2;2.3;;;;;;;10.11;100;94486.24;;;;
2019/10/05 02:48:54;;;;;;;7.549999;2.4;;;;;;;9.99;100;94486.84;;;;
2019/10/05 02:49:59;;;;;;;7.549999;2.4;;;;;;;9.99;100;94486.84;;;;
2019/10/05 02:51:05;;;;;;;7.549999;2.4;;;;;;;9.99;100;94486.84;;;;
2019/10/05 02:52:10;;;;;;;7.549999;2.4;;;;;;;9.99;100;94486.84;;;;
2019/10/05 02:53:14;;;;;;;7.549999;2.4;;;;;;;9.99;100;94486.84;;;;
2019/10/05 02:54:15;;;;;;;7.549999;2.4;;;;;;;9.99;100;94486.84;;;;
2019/10/05 02:55:17;;;;;;;7.549999;2.4;;;;;;;9.99;100;94486.84;;;;
2019/10/05 02:56:19;;;;;;;7.549999;2.4;;;;;;;9.99;100;94486.84;;;;
2019/10/05 02:57:21;;;;;;;7.549999;2.4;;;;;;;9.99;100;94486.84;;;;
2019/10/05 02:58:24;;;;;;;7.549999;2.4;;;;;;;9.99;100;94486.84;;;;
2019/10/05 02:59:27;;;;;;;6.15;2.65;;;;;;;10.01;100;94480.15;;;;
2019/10/05 03:00:31;;;;;;;6.15;2.65;;;;;;;10.01;100;94480.15;;;;
2019/10/05 03:01:48;;;;;;;6.15;2.65;;;;;;;10.01;100;94480.15;;;;
2019/10/05 03:02:49;;;;;;;6.15;2.65;;;;;;;10.01;100;94480.15;;;;
2019/10/05 03:03:51;;;;;;;6.15;2.65;;;;;;;10.01;100;94480.15;;;;
2019/10/05 03:04:52;;;;;;;6.15;2.65;;;;;;;10.01;100;94480.15;;;;
2019/10/05 03:05:53;;;;;;;6.15;2.65;;;;;;;10.01;100;94480.15;;;;
2019/10/05 03:06:54;;;;;;;6.15;2.65;;;;;;;10.01;100;94480.15;;;;
2019/10/05 03:07:55;;;;;;;6.15;2.65;;;;;;;10.01;100;94480.15;;;;
2019/10/05 03:08:57;;;;;;;6.15;2.65;;;;;;;10.01;100;94480.15;;;;
2019/10/05 03:09:58;;;;;;;7.85;2.5;;;;;;;9.98;100;94478.91;;;;
2019/10/05 03:10:59;;;;;;;7.85;2.5;;;;;;;9.98;100;94478.91;;;;
2019/10/05 03:12:00;;;;;;;7.85;2.5;;;;;;;9.98;100;94478.91;;;;
2019/10/05 03:13:01;;;;;;;7.85;2.5;;;;;;;9.98;100;94478.91;;;;
2019/10/05 03:14:02;;;;;;;7.85;2.5;;;;;;;9.98;100;94478.91;;;;
2019/10/05 03:15:04;;;;;;;7.85;2.5;;;;;;;9.98;100;94478.91;;;;
2019/10/05 03:16:05;;;;;;;7.85;2.5;;;;;;;9.98;100;94478.91;;;;
2019/10/05 03:17:07;;;;;;;7.85;2.5;;;;;;;9.98;100;94478.91;;;;
2019/10/05 03:18:08;;;;;;;7.85;2.5;;;;;;;9.98;100;94478.91;;;;
2019/10/05 03:19:09;;;;;;;7.85;2.5;;;;;;;9.98;100;94478.91;;;;
2019/10/05 03:20:10;;;;;;;8.049999;2.6;;;;;;;10.02;100;94464.23;;;;
2019/10/05 03:21:12;;;;;;;8.049999;2.6;;;;;;;10.02;100;94464.23;;;;
2019/10/05 03:22:14;;;;;;;8.049999;2.6;;;;;;;10.02;100;94464.23;;;;
2019/10/05 03:23:15;;;;;;;8.049999;2.6;;;;;;;10.02;100;94464.23;;;;
2019/10/05 03:24:16;;;;;;;8.049999;2.6;;;;;;;10.02;100;94464.23;;;;
2019/10/05 03:25:17;;;;;;;8.049999;2.6;;;;;;;10.02;100;94464.23;;;;
2019/10/05 03:26:33;;;;;;;8.049999;2.6;;;;;;;10.02;100;94464.23;;;;
2019/10/05 03:27:34;;;;;;;8.049999;2.6;;;;;;;10.02;100;94464.23;;;;
2019/10/05 03:28:36;;;;;;;8.049999;2.6;;;;;;;10.02;100;94464.23;;;;
2019/10/05 03:29:37;;;;;;;8.049999;2.6;;;;;;;10.02;100;94464.23;;;;
2019/10/05 03:30:38;;;;;;;8.049999;2.6;;;;;;;10.02;100;94464.23;;;;
2019/10/05 03:32:43;;;;;;;9.000002;2.7;;;;;;;9.98;100;94465.42;;;;
2019/10/05 03:33:45;;;;;;;9.000002;2.7;;;;;;;9.98;100;94465.42;;;;
2019/10/05 03:34:46;;;;;;;9.000002;2.7;;;;;;;9.98;100;94465.42;;;;
2019/10/05 03:35:47;;;;;;;9.000002;2.7;;;;;;;9.98;100;94465.42;;;;
2019/10/05 03:36:48;;;;;;;9.000002;2.7;;;;;;;9.98;100;94465.42;;;;
2019/10/05 03:37:51;;;;;;;9.000002;2.7;;;;;;;9.98;100;94465.42;;;;
2019/10/05 03:38:52;;;;;;;9.000002;2.7;;;;;;;9.98;100;94465.42;;;;
2019/10/05 03:39:53;;;;;;;9.000002;2.7;;;;;;;9.98;100;94465.42;;;;
2019/10/05 03:40:54;;;;;;;9.000002;2.7;;;;;;;9.98;100;94465.42;;;;
2019/10/05 03:41:55;;;;;;;6.95;2.45;;;;;;;10.02;100;94467.88;;;;
2019/10/05 03:42:57;;;;;;;6.95;2.45;;;;;;;10.02;100;94467.88;;;;
2019/10/05 03:43:59;;;;;;;6.95;2.45;;;;;;;10.02;100;94467.88;;;;
2019/10/05 03:45:00;;;;;;;6.95;2.45;;;;;;;10.02;100;94467.88;;;;
2019/10/05 03:46:01;;;;;;;6.95;2.45;;;;;;;10.02;100;94467.88;;;;
2019/10/05 03:47:03;;;;;;;6.95;2.45;;;;;;;10.02;100;94467.88;;;;
2019/10/05 03:48:04;;;;;;;6.95;2.45;;;;;;;10.02;100;94467.88;;;;
2019/10/05 03:49:05;;;;;;;6.95;2.45;;;;;;;10.02;100;94467.88;;;;
2019/10/05 03:50:07;;;;;;;6.95;2.45;;;;;;;10.02;100;94467.88;;;;
2019/10/05 03:51:29;;;;;;;6.95;2.45;;;;;;;10.02;100;94467.88;;;;
2019/10/05 03:52:30;;;;;;;8.8;2.65;;;;;;;10.02;100;94457.08;;;;
2019/10/05 03:53:32;;;;;;;8.8;2.65;;;;;;;10.02;100;94457.08;;;;
2019/10/05 03:54:33;;;;;;;8.8;2.65;;;;;;;10.02;100;94457.08;;;;
2019/10/05 03:55:35;;;;;;;8.8;2.65;;;;;;;10.02;100;94457.08;;;;
2019/10/05 03:56:36;;;;;;;8.8;2.65;;;;;;;10.02;100;94457.08;;;;
2019/10/05 03:57:37;;;;;;;8.8;2.65;;;;;;;10.02;100;94457.08;;;;
2019/10/05 03:58:38;;;;;;;8.8;2.65;;;;;;;10.02;100;94457.08;;;;
2019/10/05 03:59:39;;;;;;;8.8;2.65;;;;;;;10.02;100;94457.08;;;;
2019/10/05 04:00:40;;;;;;;8.8;2.65;;;;;;;10.02;100;94457.08;;;;
2019/10/05 04:01:50;;;;;;;8.8;2.65;;;;;;;10.02;100;94457.08;;;;
2019/10/05 04:02:51;;;;;;;12;2.95;;;;;;;10.07;100;94460.27;;;;
2019/10/05 04:03:52;;;;;;;12;2.95;;;;;;;10.07;100;94460.27;;;;
2019/10/05 04:04:53;;;;;;;12;2.95;;;;;;;10.07;100;94460.27;;;;
2019/10/05 04:05:54;;;;;;;12;2.95;;;;;;;10.07;100;94460.27;;;;
2019/10/05 04:06:57;;;;;;;12;2.95;;;;;;;10.07;100;94460.27;;;;
2019/10/05 04:07:58;;;;;;;12;2.95;;;;;;;10.07;100;94460.27;;;;
2019/10/05 04:08:59;;;;;;;12;2.95;;;;;;;10.07;100;94460.27;;;;
2019/10/05 04:10:00;;;;;;;12;2.95;;;;;;;10.07;100;94460.27;;;;
2019/10/05 04:11:07;;;;;;;12;2.95;;;;;;;10.07;100;94460.27;;;;
2019/10/05 04:15:50;;;;;;;8.949998;2.9;;;;;;;10.06;100;94466.3;;;;
2019/10/05 04:16:58;;;;;;;8.949998;2.9;;;;;;;10.06;100;94466.3;;;;
2019/10/05 04:18:03;;;;;;;8.949998;2.9;;;;;;;10.06;100;94466.3;;;;
2019/10/05 04:19:06;;;;;;;8.949998;2.9;;;;;;;10.06;100;94466.3;;;;
2019/10/05 04:20:07;;;;;;;8.949998;2.9;;;;;;;10.06;100;94466.3;;;;
2019/10/05 04:21:09;;;;;;;8.949998;2.9;;;;;;;10.06;100;94466.3;;;;
2019/10/05 04:22:10;;;;;;;8.949998;2.9;;;;;;;10.06;100;94466.3;;;;
2019/10/05 04:23:11;;;;;;;8.949998;2.9;;;;;;;10.06;100;94466.3;;;;
2019/10/05 04:24:12;;;;;;;8.649999;2.8;;;;;;;10.15;100;94468.45;;;;
2019/10/05 04:25:13;;;;;;;8.649999;2.8;;;;;;;10.15;100;94468.45;;;;
2019/10/05 04:26:15;;;;;;;8.649999;2.8;;;;;;;10.15;100;94468.45;;;;
2019/10/05 04:27:16;;;;;;;8.649999;2.8;;;;;;;10.15;100;94468.45;;;;
2019/10/05 04:28:18;;;;;;;8.649999;2.8;;;;;;;10.15;100;94468.45;;;;
2019/10/05 04:29:19;;;;;;;8.649999;2.8;;;;;;;10.15;100;94468.45;;;;
2019/10/05 04:30:20;;;;;;;8.649999;2.8;;;;;;;10.15;100;94468.45;;;;
2019/10/05 04:31:32;;;;;;;8.649999;2.8;;;;;;;10.15;100;94468.45;;;;
2019/10/05 04:32:34;;;;;;;8.649999;2.8;;;;;;;10.15;100;94468.45;;;;
2019/10/05 04:33:35;;;;;;;8.649999;2.8;;;;;;;10.15;100;94468.45;;;;
2019/10/05 04:34:36;;;;;;;7.8;2.5;;;;;;;10.13;100;94462.5;;;;
2019/10/05 04:35:37;;;;;;;7.8;2.5;;;;;;;10.13;100;94462.5;;;;
2019/10/05 04:36:38;;;;;;;7.8;2.5;;;;;;;10.13;100;94462.5;;;;
2019/10/05 04:37:39;;;;;;;7.8;2.5;;;;;;;10.13;100;94462.5;;;;
2019/10/05 04:38:41;;;;;;;7.8;2.5;;;;;;;10.13;100;94462.5;;;;
2019/10/05 04:39:42;;;;;;;7.8;2.5;;;;;;;10.13;100;94462.5;;;;
2019/10/05 04:40:43;;;;;;;7.8;2.5;;;;;;;10.13;100;94462.5;;;;
2019/10/05 04:41:44;;;;;;;7.8;2.5;;;;;;;10.13;100;94462.5;;;;
2019/10/05 04:42:45;;;;;;;7.8;2.5;;;;;;;10.13;100;94462.5;;;;
2019/10/05 04:43:47;;;;;;;7.8;2.5;;;;;;;10.13;100;94462.5;;;;
2019/10/05 04:44:48;;;;;;;7.8;2.5;;;;;;;10.13;100;94462.5;;;;
2019/10/05 04:45:49;;;;;;;7.65;2.9;;;;;;;10.16;100;94471.04;;;;
2019/10/05 04:46:50;;;;;;;7.65;2.9;;;;;;;10.16;100;94471.04;;;;
2019/10/05 04:47:51;;;;;;;7.65;2.9;;;;;;;10.16;100;94471.04;;;;
2019/10/05 04:48:52;;;;;;;7.65;2.9;;;;;;;10.16;100;94471.04;;;;
2019/10/05 04:49:53;;;;;;;7.65;2.9;;;;;;;10.16;100;94471.04;;;;
2019/10/05 04:50:55;;;;;;;7.65;2.9;;;;;;;10.16;100;94471.04;;;;
2019/10/05 04:51:57;;;;;;;7.65;2.9;;;;;;;10.16;100;94471.04;;;;
2019/10/05 04:52:58;;;;;;;7.65;2.9;;;;;;;10.16;100;94471.04;;;;
2019/10/05 04:54:00;;;;;;;7.65;2.9;;;;;;;10.16;100;94471.04;;;;
2019/10/05 04:55:02;;;;;;;7.65;2.9;;;;;;;10.16;100;94471.04;;;;
2019/10/05 04:56:04;;;;;;;9.399998;2.6;;;;;;;10.17;100;94469.84;;;;
2019/10/05 04:57:06;;;;;;;9.399998;2.6;;;;;;;10.17;100;94469.84;;;;
2019/10/05 04:58:07;;;;;;;9.399998;2.6;;;;;;;10.17;100;94469.84;;;;
2019/10/05 04:59:09;;;;;;;9.399998;2.6;;;;;;;10.17;100;94469.84;;;;
2019/10/05 05:00:15;;;;;;;9.399998;2.6;;;;;;;10.17;100;94469.84;;;;
2019/10/05 05:01:46;;;;;;;9.399998;2.6;;;;;;;10.17;100;94469.84;;;;
2019/10/05 05:02:48;;;;;;;9.399998;2.6;;;;;;;10.17;100;94469.84;;;;
2019/10/05 05:03:49;;;;;;;9.399998;2.6;;;;;;;10.17;100;94469.84;;;;
2019/10/05 05:04:56;;;;;;;9.399998;2.6;;;;;;;10.17;100;94469.84;;;;
2019/10/05 05:05:58;;;;;;;9.399998;2.6;;;;;;;10.17;100;94469.84;;;;
2019/10/05 05:07:03;;;;;;;7.449999;2.35;;;;;;;10.29;100;94493.58;;;;
2019/10/05 05:08:04;;;;;;;7.449999;2.35;;;;;;;10.29;100;94493.58;;;;
2019/10/05 05:09:06;;;;;;;7.449999;2.35;;;;;;;10.29;100;94493.58;;;;
2019/10/05 05:10:07;;;;;;;7.449999;2.35;;;;;;;10.29;100;94493.58;;;;
2019/10/05 05:11:26;;;;;;;7.449999;2.35;;;;;;;10.29;100;94493.58;;;;
2019/10/05 05:12:30;;;;;;;7.449999;2.35;;;;;;;10.29;100;94493.58;;;;
2019/10/05 05:13:31;;;;;;;7.449999;2.35;;;;;;;10.29;100;94493.58;;;;
2019/10/05 05:14:32;;;;;;;7.449999;2.35;;;;;;;10.29;100;94493.58;;;;
2019/10/05 05:15:33;;;;;;;7.449999;2.35;;;;;;;10.29;100;94493.58;;;;
2019/10/05 05:16:34;;;;;;;7.449999;2.35;;;;;;;10.29;100;94493.58;;;;
2019/10/05 05:17:38;;;;;;;6.299999;2.35;;;;;;;10.29;100;94497.49;;;;
2019/10/05 05:18:39;;;;;;;6.299999;2.35;;;;;;;10.29;100;94497.49;;;;
2019/10/05 05:19:41;;;;;;;6.299999;2.35;;;;;;;10.29;100;94497.49;;;;
2019/10/05 05:20:42;;;;;;;6.299999;2.35;;;;;;;10.29;100;94497.49;;;;
2019/10/05 05:21:43;;;;;;;6.299999;2.35;;;;;;;10.29;100;94497.49;;;;
2019/10/05 05:22:45;;;;;;;6.299999;2.35;;;;;;;10.29;100;94497.49;;;;
2019/10/05 05:23:46;;;;;;;6.299999;2.35;;;;;;;10.29;100;94497.49;;;;
2019/10/05 05:24:48;;;;;;;6.299999;2.35;;;;;;;10.29;100;94497.49;;;;
2019/10/05 05:25:49;;;;;;;6.299999;2.35;;;;;;;10.29;100;94497.49;;;;
2019/10/05 05:26:50;;;;;;;6.299999;2.35;;;;;;;10.29;100;94497.49;;;;
2019/10/05 05:27:51;;;;;;;5.75;2.900001;;;;;;;10.31;100;94492.8;;;;
2019/10/05 05:28:52;;;;;;;5.75;2.900001;;;;;;;10.31;100;94492.8;;;;
2019/10/05 05:29:54;;;;;;;5.75;2.900001;;;;;;;10.31;100;94492.8;;;;
2019/10/05 05:30:55;;;;;;;5.75;2.900001;;;;;;;10.31;100;94492.8;;;;
2019/10/05 05:32:00;;;;;;;5.75;2.900001;;;;;;;10.31;100;94492.8;;;;
2019/10/05 05:33:02;;;;;;;5.75;2.900001;;;;;;;10.31;100;94492.8;;;;
2019/10/05 05:34:10;;;;;;;5.75;2.900001;;;;;;;10.31;100;94492.8;;;;
2019/10/05 05:35:20;;;;;;;5.75;2.900001;;;;;;;10.31;100;94492.8;;;;
2019/10/05 05:36:38;;;;;;;5.75;2.900001;;;;;;;10.31;100;94492.8;;;;
2019/10/05 05:37:54;;;;;;;5.75;2.900001;;;;;;;10.31;100;94492.8;;;;
2019/10/05 05:38:56;;;;;;;6.85;2.5;;;;;;;10.31;100;94495.36;;;;
2019/10/05 05:39:58;;;;;;;6.85;2.5;;;;;;;10.31;100;94495.36;;;;
2019/10/05 05:41:12;;;;;;;6.85;2.5;;;;;;;10.31;100;94495.36;;;;
2019/10/05 05:42:13;;;;;;;6.85;2.5;;;;;;;10.31;100;94495.36;;;;
2019/10/05 05:43:14;;;;;;;6.85;2.5;;;;;;;10.31;100;94495.36;;;;
2019/10/05 05:44:15;;;;;;;6.85;2.5;;;;;;;10.31;100;94495.36;;;;
2019/10/05 05:45:16;;;;;;;6.85;2.5;;;;;;;10.31;100;94495.36;;;;
2019/10/05 05:46:18;;;;;;;6.85;2.5;;;;;;;10.31;100;94495.36;;;;
2019/10/05 05:47:19;;;;;;;6.85;2.5;;;;;;;10.31;100;94495.36;;;;
2019/10/05 05:48:20;;;;;;;6.85;2.5;;;;;;;10.31;100;94495.36;;;;
2019/10/05 05:49:22;;;;;;;7.599999;2.65;;;;;;;10.4;100;94501.93;;;;
2019/10/05 05:50:23;;;;;;;7.599999;2.65;;;;;;;10.4;100;94501.93;;;;
2019/10/05 05:51:25;;;;;;;7.599999;2.65;;;;;;;10.4;100;94501.93;;;;
2019/10/05 05:52:27;;;;;;;7.599999;2.65;;;;;;;10.4;100;94501.93;;;;
2019/10/05 05:53:28;;;;;;;7.599999;2.65;;;;;;;10.4;100;94501.93;;;;
2019/10/05 05:54:29;;;;;;;7.599999;2.65;;;;;;;10.4;100;94501.93;;;;
2019/10/05 05:55:30;;;;;;;7.599999;2.65;;;;;;;10.4;100;94501.93;;;;
2019/10/05 05:56:33;;;;;;;7.599999;2.65;;;;;;;10.4;100;94501.93;;;;
2019/10/05 05:57:34;;;;;;;7.599999;2.65;;;;;;;10.4;100;94501.93;;;;
2019/10/05 05:58:36;;;;;;;7.599999;2.65;;;;;;;10.4;100;94501.93;;;;
2019/10/05 05:59:37;;;;;;;8.249999;2.65;;;;;;;10.39;100;94507.59;;;;
2019/10/05 06:00:38;;;;;;;8.249999;2.65;;;;;;;10.39;100;94507.59;;;;
2019/10/05 06:01:40;;;;;;;8.249999;2.65;;;;;;;10.39;100;94507.59;;;;
2019/10/05 06:02:41;;;;;;;8.249999;2.65;;;;;;;10.39;100;94507.59;;;;
2019/10/05 06:03:42;;;;;;;8.249999;2.65;;;;;;;10.39;100;94507.59;;;;
2019/10/05 06:04:44;;;;;;;8.249999;2.65;;;;;;;10.39;100;94507.59;;;;
2019/10/05 06:05:45;;;;;;;8.249999;2.65;;;;;;;10.39;100;94507.59;;;;
2019/10/05 06:06:55;;;;;;;8.249999;2.65;;;;;;;10.39;100;94507.59;;;;
2019/10/05 06:07:56;;;;;;;8.249999;2.65;;;;;;;10.39;100;94507.59;;;;